createdAt,value
2023-04-02T00:00:01.499Z,24
2023-04-02T00:05:01.893Z,14
2023-04-02T00:10:02.391Z,31
2023-04-02T00:15:01.745Z,17
2023-04-02T00:20:02.588Z,29
2023-04-02T00:25:01.962Z,17
2023-04-02T00:30:01.461Z,12
2023-04-02T00:35:01.825Z,31
2023-04-02T00:40:02.311Z,11
2023-04-02T00:45:01.695Z,30
2023-04-02T00:50:02.040Z,10
2023-04-02T00:55:01.419Z,35
2023-04-02T01:00:01.772Z,26
2023-04-02T01:05:02.112Z,40
2023-04-02T01:10:01.631Z,30
2023-04-02T01:15:02.153Z,15
2023-04-02T01:20:01.588Z,27
2023-04-02T01:25:02.186Z,38
2023-04-02T01:30:01.689Z,17
2023-04-02T01:35:02.449Z,12
2023-04-02T01:40:01.926Z,24
2023-04-02T01:45:02.258Z,36
2023-04-02T01:50:02.016Z,34
2023-04-02T01:55:01.356Z,24
2023-04-02T02:00:01.932Z,9
2023-04-02T02:05:01.815Z,24
2023-04-02T02:10:02.190Z,14
2023-04-02T02:15:01.544Z,31
2023-04-02T02:20:01.984Z,10
2023-04-02T02:25:01.324Z,19
2023-04-02T02:30:01.698Z,12
2023-04-02T02:35:02.472Z,30
2023-04-02T02:40:01.907Z,8
2023-04-02T02:45:02.686Z,33
2023-04-02T02:50:02.441Z,40
2023-04-02T02:55:01.772Z,19
2023-04-02T03:00:02.113Z,40
2023-04-02T03:05:01.488Z,28
2023-04-02T03:10:01.891Z,53
2023-04-02T03:15:02.688Z,41
2023-04-02T03:20:02.179Z,29
2023-04-02T03:25:01.956Z,47
2023-04-02T03:30:01.730Z,28
2023-04-02T03:35:02.528Z,26
2023-04-02T03:40:01.947Z,51
2023-04-02T03:45:01.310Z,30
2023-04-02T03:50:02.077Z,10
2023-04-02T03:55:01.416Z,45
2023-04-02T04:00:02.197Z,25
2023-04-02T04:05:01.553Z,43
2023-04-02T04:10:01.985Z,19
2023-04-02T04:15:01.473Z,23
2023-04-02T04:20:01.931Z,24
2023-04-02T04:25:01.449Z,22
2023-04-02T04:30:01.711Z,42
2023-04-02T04:35:02.042Z,42
2023-04-02T04:40:01.468Z,28
2023-04-02T04:45:01.854Z,12
2023-04-02T04:50:01.929Z,23
2023-04-02T04:55:02.263Z,6
2023-04-02T05:00:01.638Z,22
2023-04-02T05:05:02.042Z,6
2023-04-02T05:10:01.577Z,19
2023-04-02T05:15:02.395Z,27
2023-04-02T05:20:01.829Z,14
2023-04-02T05:25:02.170Z,24
2023-04-02T05:30:01.657Z,24
2023-04-02T05:35:02.004Z,35
2023-04-02T05:40:01.810Z,29
2023-04-02T05:45:02.593Z,25
2023-04-02T05:50:02.118Z,25
2023-04-02T05:55:01.492Z,9
2023-04-02T06:00:01.838Z,14
2023-04-02T06:05:02.614Z,13
2023-04-02T06:10:02.007Z,18
2023-04-02T06:15:01.373Z,21
2023-04-02T06:20:01.782Z,6
2023-04-02T06:25:02.108Z,12
2023-04-02T06:30:01.665Z,10
2023-04-02T06:35:02.186Z,11
2023-04-02T06:40:01.769Z,29
2023-04-02T06:45:02.200Z,16
2023-04-02T06:50:01.556Z,31
2023-04-02T06:55:01.940Z,11
2023-04-02T07:00:01.339Z,4
2023-04-02T07:05:01.773Z,21
2023-04-02T07:10:02.345Z,28
2023-04-02T07:15:01.685Z,18
2023-04-02T07:20:02.113Z,33
2023-04-02T07:25:01.895Z,7
2023-04-02T07:30:02.665Z,13
2023-04-02T07:35:02.010Z,48
2023-04-02T07:40:01.540Z,36
2023-04-02T07:45:04.027Z,50
2023-04-02T07:50:01.889Z,55
2023-04-02T07:55:02.222Z,19
2023-04-02T08:00:01.996Z,14
2023-04-02T08:05:01.763Z,47
2023-04-02T08:10:02.289Z,46
2023-04-02T08:15:01.672Z,31
2023-04-02T08:20:02.132Z,29
2023-04-02T08:25:01.917Z,41
2023-04-02T08:30:02.700Z,51
2023-04-02T08:35:02.045Z,54
2023-04-02T08:40:01.944Z,33
2023-04-02T08:45:08.071Z,44
2023-04-02T08:50:01.447Z,50
2023-04-02T08:55:01.976Z,29
2023-04-02T09:00:01.362Z,32
2023-04-02T09:05:02.237Z,55
2023-04-02T09:10:01.708Z,49
2023-04-02T09:15:02.081Z,18
2023-04-02T09:20:01.957Z,41
2023-04-02T09:25:01.322Z,20
2023-04-02T09:30:01.731Z,8
2023-04-02T09:35:04.238Z,8
2023-04-02T09:40:02.114Z,8
2023-04-02T09:45:01.601Z,49
2023-04-02T09:50:01.944Z,53
2023-04-02T09:55:01.514Z,21
2023-04-02T10:00:01.894Z,38
2023-04-02T10:05:02.664Z,24
2023-04-02T10:10:02.540Z,38
2023-04-02T10:15:01.952Z,32
2023-04-02T10:20:02.575Z,31
2023-04-02T10:25:01.914Z,44
2023-04-02T10:30:02.427Z,46
2023-04-02T10:35:02.500Z,22
2023-04-02T10:40:01.927Z,38
2023-04-02T10:45:02.721Z,45
2023-04-02T10:50:02.483Z,4
2023-04-02T10:55:01.950Z,25
2023-04-02T11:00:01.377Z,46
2023-04-02T11:05:02.176Z,30
2023-04-02T11:10:02.157Z,57
2023-04-02T11:15:01.637Z,49
2023-04-02T11:20:02.480Z,19
2023-04-02T11:25:02.247Z,11
2023-04-02T11:30:01.623Z,33
2023-04-02T11:35:07.066Z,33
2023-04-02T11:40:02.241Z,17
2023-04-02T11:45:01.579Z,43
2023-04-02T11:50:02.343Z,24
2023-04-02T11:55:02.032Z,31
2023-04-02T12:00:01.541Z,34
2023-04-02T12:05:01.931Z,41
2023-04-02T12:10:01.357Z,27
2023-04-02T12:15:01.723Z,35
2023-04-02T12:20:04.317Z,30
2023-04-02T12:25:02.200Z,27
2023-04-02T12:30:01.976Z,22
2023-04-02T12:35:01.460Z,20
2023-04-02T12:40:01.960Z,49
2023-04-02T12:45:01.335Z,30
2023-04-02T12:50:01.941Z,33
2023-04-02T12:55:01.340Z,44
2023-04-02T13:00:02.135Z,23
2023-04-02T13:05:01.924Z,28
2023-04-02T13:10:01.441Z,36
2023-04-02T13:15:01.813Z,41
2023-04-02T13:20:02.366Z,32
2023-04-02T13:25:02.139Z,41
2023-04-02T13:30:01.920Z,24
2023-04-02T13:35:02.406Z,12
2023-04-02T13:40:04.219Z,37
2023-04-02T13:45:02.360Z,41
2023-04-02T13:50:01.835Z,29
2023-04-02T13:55:02.299Z,39
2023-04-02T14:00:01.655Z,18
2023-04-02T14:05:02.119Z,37
2023-04-02T14:10:01.544Z,18
2023-04-02T14:15:02.060Z,31
2023-04-02T14:20:01.612Z,30
2023-04-02T14:25:02.385Z,15
2023-04-02T14:30:02.208Z,12
2023-04-02T14:35:01.570Z,36
2023-04-02T14:40:03.680Z,14
2023-04-02T14:45:02.472Z,13
2023-04-02T14:50:01.926Z,9
2023-04-02T14:55:02.289Z,27
2023-04-02T15:00:02.155Z,18
2023-04-02T15:05:01.909Z,7
2023-04-02T15:10:01.754Z,22
2023-04-02T15:15:02.247Z,24
2023-04-02T15:20:01.670Z,21
2023-04-02T15:25:02.006Z,10
2023-04-02T15:30:01.381Z,13
2023-04-02T15:35:01.725Z,8
2023-04-02T15:40:02.179Z,28
2023-04-02T15:45:01.666Z,25
2023-04-02T15:50:02.195Z,29
2023-04-02T15:55:01.602Z,13
2023-04-02T16:00:02.118Z,25
2023-04-02T16:05:01.909Z,6
2023-04-02T16:10:01.717Z,30
2023-04-02T16:15:02.091Z,20
2023-04-02T16:20:02.276Z,8
2023-04-02T16:25:01.837Z,30
2023-04-02T16:30:02.201Z,19
2023-04-02T16:35:15.019Z,20
2023-04-02T16:40:02.023Z,8
2023-04-02T16:45:01.847Z,29
2023-04-02T16:50:02.281Z,18
2023-04-02T16:55:02.082Z,13
2023-04-02T17:00:01.938Z,7
2023-04-02T17:05:01.562Z,45
2023-04-02T17:10:01.950Z,33
2023-04-02T17:15:01.751Z,27
2023-04-02T17:20:02.238Z,3
2023-04-02T17:25:01.580Z,24
2023-04-02T17:30:01.982Z,6
2023-04-02T17:35:01.467Z,27
2023-04-02T17:40:01.888Z,20
2023-04-02T17:45:02.380Z,36
2023-04-02T17:50:01.850Z,20
2023-04-02T17:55:02.197Z,35
2023-04-02T18:00:01.996Z,12
2023-04-02T18:05:01.342Z,7
2023-04-02T18:10:02.192Z,24
2023-04-02T18:15:01.666Z,4
2023-04-02T18:20:02.504Z,24
2023-04-02T18:25:01.971Z,8
2023-04-02T18:30:01.473Z,30
2023-04-02T18:35:01.955Z,33
2023-04-02T18:40:01.760Z,32
2023-04-02T18:45:02.536Z,15
2023-04-02T18:50:02.306Z,8
2023-04-02T18:55:01.817Z,30
2023-04-02T19:00:02.228Z,20
2023-04-02T19:05:01.612Z,36
2023-04-02T19:10:02.430Z,26
2023-04-02T19:15:01.788Z,40
2023-04-02T19:20:02.186Z,35
2023-04-02T19:25:01.525Z,49
2023-04-02T19:30:02.311Z,32
2023-04-02T19:35:01.702Z,37
2023-04-02T19:40:02.518Z,15
2023-04-02T19:45:01.890Z,8
2023-04-02T19:50:02.237Z,33
2023-04-02T19:55:02.043Z,4
2023-04-02T20:00:01.877Z,30
2023-04-02T20:05:02.243Z,15
2023-04-02T20:10:01.824Z,38
2023-04-02T20:15:02.313Z,4
2023-04-02T20:20:01.762Z,15
2023-04-02T20:25:02.151Z,12
2023-04-02T20:30:01.540Z,16
2023-04-02T20:35:02.157Z,11
2023-04-02T20:40:01.668Z,40
2023-04-02T20:45:02.207Z,35
2023-04-02T20:50:01.551Z,48
2023-04-02T20:55:02.085Z,20
2023-04-02T21:00:01.589Z,14
2023-04-02T21:05:02.370Z,58
2023-04-02T21:10:01.789Z,74
2023-04-02T21:15:03.090Z,48
2023-04-02T21:20:02.501Z,67
2023-04-02T21:25:02.281Z,84
2023-04-02T21:30:01.813Z,123
2023-04-02T21:35:02.275Z,49
2023-04-02T21:40:01.745Z,102
2023-04-02T21:45:02.183Z,71
2023-04-02T21:50:01.573Z,89
2023-04-02T21:55:02.373Z,121
2023-04-02T22:00:01.913Z,105
2023-04-02T22:05:02.141Z,229
2023-04-02T22:10:01.998Z,69
2023-04-02T22:15:01.534Z,106
2023-04-02T22:20:02.078Z,104
2023-04-02T22:25:01.446Z,48
2023-04-02T22:30:02.223Z,82
2023-04-02T22:35:01.793Z,100
2023-04-02T22:40:02.272Z,98
2023-04-02T22:45:01.662Z,135
2023-04-02T22:50:02.024Z,67
2023-04-02T22:55:01.828Z,85
2023-04-02T23:00:02.232Z,44
2023-04-02T23:05:01.719Z,108
2023-04-02T23:10:03.956Z,49
2023-04-02T23:15:02.162Z,99
2023-04-02T23:20:01.647Z,66
2023-04-02T23:25:01.979Z,101
2023-04-02T23:30:01.333Z,75
2023-04-02T23:35:01.673Z,98
2023-04-02T23:40:02.176Z,112
2023-04-02T23:45:01.547Z,113
2023-04-02T23:50:02.295Z,95
2023-04-02T23:55:01.648Z,101
